Time;durP1;ratioP1;P1;durP2;ratioP2;P2;SDS_P1;SDS_P2;PMS_P1;PMS_P2;Temp;Humidity;BMP_temperature;BMP_pressure;BME280_temperature;BME280_humidity;BME280_pressure;Samples;Min_cycle;Max_cycle;Signal;HPM_P1;HPM_P2
2022/07/20 00:00:29;;;;;;;6.47;3.83;;;26.90;70.20;;;;;;5034451;28;20163;-53
2022/07/20 00:02:55;;;;;;;8.05;3.80;;;26.90;70.40;;;;;;5034352;28;20191;-51
2022/07/20 00:05:20;;;;;;;9.30;3.83;;;26.80;70.30;;;;;;5034325;28;20172;-51
2022/07/20 00:07:46;;;;;;;5.28;3.97;;;26.80;70.00;;;;;;5033812;28;20577;-47
2022/07/20 00:12:56;;;;;;;5.90;3.10;;;26.70;71.70;;;;;;5034252;28;20189;-48
2022/07/20 00:15:21;;;;;;;10.43;3.78;;;26.70;71.70;;;;;;5034169;28;20633;-47
2022/07/20 00:17:47;;;;;;;8.43;3.80;;;26.70;71.60;;;;;;5034332;28;20532;-45
2022/07/20 00:20:13;;;;;;;12.13;3.75;;;26.60;72.00;;;;;;5033114;28;20636;-46
2022/07/20 00:22:38;;;;;;;5.18;3.90;;;26.60;72.40;;;;;;5033076;28;20191;-44
2022/07/20 00:25:04;;;;;;;9.52;3.97;;;26.50;72.30;;;;;;5033974;28;20719;-45
2022/07/20 00:27:30;;;;;;;5.65;3.90;;;26.60;73.00;;;;;;5033921;28;20174;-44
2022/07/20 00:29:56;;;;;;;6.72;3.72;;;26.50;72.60;;;;;;5033888;28;20249;-45
2022/07/20 00:32:21;;;;;;;6.60;3.60;;;26.50;72.70;;;;;;5033861;28;20221;-45
2022/07/20 00:34:47;;;;;;;4.20;3.28;;;26.50;73.60;;;;;;5033848;28;20203;-50
2022/07/20 00:37:12;;;;;;;8.38;3.90;;;26.50;73.40;;;;;;5033680;28;20175;-51
2022/07/20 00:39:38;;;;;;;7.55;3.92;;;26.50;73.60;;;;;;5034058;28;20217;-49
2022/07/20 00:42:04;;;;;;;6.18;3.17;;;26.50;73.30;;;;;;5033656;28;20164;-50
2022/07/20 00:44:29;;;;;;;6.97;3.63;;;26.40;74.20;;;;;;5033220;28;20199;-55
2022/07/20 00:46:55;;;;;;;7.88;4.13;;;26.30;74.70;;;;;;5033841;28;20508;-51
2022/07/20 00:49:22;;;;;;;10.93;3.88;;;26.40;74.70;;;;;;5033050;28;20178;-47
2022/07/20 00:51:48;;;;;;;7.20;3.60;;;26.40;75.20;;;;;;5033434;28;20171;-45
2022/07/20 00:54:14;;;;;;;6.82;4.00;;;26.30;74.80;;;;;;5033182;28;20167;-48
2022/07/20 00:56:40;;;;;;;5.43;3.90;;;26.30;74.50;;;;;;5033066;28;20637;-44
2022/07/20 00:59:08;;;;;;;7.65;3.70;;;26.30;76.10;;;;;;5033808;28;20179;-44
2022/07/20 01:01:35;;;;;;;6.93;3.65;;;26.30;75.90;;;;;;5033493;28;20174;-45
2022/07/20 01:04:01;;;;;;;8.82;4.00;;;26.20;76.30;;;;;;5033192;28;20210;-46
2022/07/20 01:06:28;;;;;;;9.98;3.70;;;26.20;77.30;;;;;;5032970;28;20269;-45
2022/07/20 01:08:53;;;;;;;8.32;3.95;;;26.10;77.50;;;;;;5033273;28;20167;-44
2022/07/20 01:11:20;;;;;;;9.00;4.18;;;26.00;78.10;;;;;;5033290;28;20508;-45
2022/07/20 01:13:45;;;;;;;8.50;3.95;;;26.00;77.80;;;;;;5033058;28;20174;-45
2022/07/20 01:16:11;;;;;;;13.15;4.13;;;26.10;78.60;;;;;;5033071;28;20167;-44
2022/07/20 01:18:37;;;;;;;10.65;4.20;;;26.00;79.60;;;;;;5033335;28;20262;-44
2022/07/20 01:21:07;;;;;;;10.68;4.00;;;26.00;79.50;;;;;;5032890;28;20195;-44
2022/07/20 01:23:33;;;;;;;5.85;3.55;;;26.00;79.60;;;;;;5033079;28;20214;-44
2022/07/20 01:25:59;;;;;;;9.73;4.15;;;25.90;79.00;;;;;;5032689;28;20168;-44
2022/07/20 01:28:26;;;;;;;8.10;4.18;;;25.90;80.50;;;;;;5032747;28;20230;-44
2022/07/20 01:30:52;;;;;;;6.43;3.60;;;25.80;80.90;;;;;;5032746;28;20217;-44
2022/07/20 01:33:19;;;;;;;9.80;3.67;;;25.80;79.40;;;;;;5032720;28;20200;-44
2022/07/20 01:35:44;;;;;;;6.68;3.85;;;25.80;80.80;;;;;;5032680;28;20246;-44
2022/07/20 01:38:10;;;;;;;8.63;3.75;;;25.70;81.60;;;;;;5032868;28;20207;-44
2022/07/20 01:40:36;;;;;;;6.65;3.60;;;25.70;82.00;;;;;;5032875;28;20633;-45
2022/07/20 01:43:01;;;;;;;7.65;3.65;;;25.70;82.60;;;;;;5032527;28;20194;-44
2022/07/20 01:45:27;;;;;;;4.10;3.40;;;25.70;80.80;;;;;;5032749;28;20179;-44
2022/07/20 01:47:53;;;;;;;7.53;3.67;;;25.70;81.40;;;;;;5032554;28;20191;-44
2022/07/20 01:50:19;;;;;;;8.27;4.18;;;25.60;81.50;;;;;;5032362;28;20171;-44
2022/07/20 01:52:44;;;;;;;6.82;3.67;;;25.60;81.30;;;;;;5032283;28;20625;-44
2022/07/20 01:55:10;;;;;;;10.13;4.22;;;25.60;83.00;;;;;;5032375;28;20172;-44
2022/07/20 01:57:37;;;;;;;5.15;3.15;;;25.60;83.00;;;;;;5032793;28;20178;-45
2022/07/20 02:00:06;;;;;;;4.07;3.63;;;25.60;83.80;;;;;;5032548;28;20160;-44
2022/07/20 02:02:31;;;;;;;5.60;3.05;;;25.60;83.10;;;;;;5032074;28;20569;-54
2022/07/20 02:04:57;;;;;;;9.13;4.00;;;25.60;83.60;;;;;;5031943;28;20229;-55
2022/07/20 02:07:22;;;;;;;9.15;3.38;;;25.60;84.30;;;;;;5032007;28;20219;-55
2022/07/20 02:09:48;;;;;;;4.28;3.80;;;25.50;84.40;;;;;;5032091;28;20171;-54
2022/07/20 02:12:14;;;;;;;8.15;3.90;;;25.50;84.90;;;;;;5032066;28;20651;-55
2022/07/20 02:14:39;;;;;;;7.47;3.70;;;25.50;84.40;;;;;;5031753;28;20599;-45
2022/07/20 02:17:05;;;;;;;13.57;3.83;;;25.50;85.20;;;;;;5032201;28;20182;-54
2022/07/20 02:19:30;;;;;;;9.40;3.90;;;25.50;84.10;;;;;;5032001;28;20163;-52
2022/07/20 02:21:56;;;;;;;7.20;4.10;;;25.40;84.60;;;;;;5032125;28;20579;-52
2022/07/20 02:24:22;;;;;;;4.93;3.58;;;25.30;83.40;;;;;;5031880;28;20626;-51
2022/07/20 02:26:47;;;;;;;6.72;3.83;;;25.40;85.40;;;;;;5031947;28;20162;-44
2022/07/20 02:29:13;;;;;;;10.23;3.97;;;25.40;86.20;;;;;;5031817;28;20217;-44
2022/07/20 02:31:39;;;;;;;9.50;3.92;;;25.40;87.20;;;;;;5032377;28;20182;-54
2022/07/20 02:34:04;;;;;;;8.55;3.90;;;25.30;86.30;;;;;;5032239;28;20177;-54
2022/07/20 02:36:30;;;;;;;12.07;3.97;;;25.30;87.90;;;;;;5031941;28;20167;-53
2022/07/20 02:38:56;;;;;;;6.15;3.42;;;25.30;88.60;;;;;;5031774;28;20584;-51
2022/07/20 02:41:21;;;;;;;6.25;3.67;;;25.20;88.70;;;;;;5030468;28;20168;-45
2022/07/20 02:43:47;;;;;;;9.65;3.58;;;25.20;89.70;;;;;;5031692;28;20291;-50
2022/07/20 02:46:12;;;;;;;7.63;4.15;;;25.20;89.80;;;;;;5031941;28;20194;-54
2022/07/20 02:48:39;;;;;;;9.77;3.80;;;25.10;90.10;;;;;;5031960;28;20667;-50
2022/07/20 02:51:04;;;;;;;6.25;3.63;;;25.10;90.60;;;;;;5032224;28;20607;-45
2022/07/20 02:53:30;;;;;;;7.47;3.95;;;25.00;89.50;;;;;;5031922;28;20202;-50
2022/07/20 02:55:55;;;;;;;8.35;3.83;;;25.10;90.70;;;;;;5031608;28;20225;-55
2022/07/20 02:58:21;;;;;;;6.90;3.83;;;25.10;90.00;;;;;;5031415;28;20198;-53
2022/07/20 03:00:47;;;;;;;8.88;4.32;;;25.00;91.10;;;;;;5031217;28;20218;-52
2022/07/20 03:03:12;;;;;;;5.15;3.83;;;25.00;90.90;;;;;;5031637;28;20211;-49
2022/07/20 03:05:38;;;;;;;6.03;4.15;;;25.00;91.40;;;;;;5031577;28;20170;-54
2022/07/20 03:08:06;;;;;;;8.23;3.38;;;24.10;91.20;;;;;;5031921;28;20183;-54
2022/07/20 03:10:32;;;;;;;14.15;4.57;;;24.60;95.10;;;;;;5031486;28;20164;-54
2022/07/20 03:12:58;;;;;;;11.60;4.28;;;24.50;95.30;;;;;;5032504;28;20159;-54
2022/07/20 03:15:23;;;;;;;13.88;3.97;;;24.60;95.40;;;;;;5035549;28;20647;-53
2022/07/20 03:17:52;;;;;;;11.88;4.45;;;24.70;94.60;;;;;;5035194;28;20179;-45
2022/07/20 03:20:24;;;;;;;13.95;5.78;;;24.60;96.40;;;;;;5035456;28;20172;-45
2022/07/20 03:22:50;;;;;;;16.20;6.38;;;24.40;97.30;;;;;;5035104;28;20218;-46
2022/07/20 03:25:16;;;;;;;13.75;6.32;;;24.50;97.50;;;;;;5035139;28;20203;-43
2022/07/20 03:27:42;;;;;;;12.55;5.70;;;24.40;99.60;;;;;;5034968;28;20272;-44
2022/07/20 03:30:08;;;;;;;9.85;5.25;;;24.40;99.90;;;;;;5035051;28;20178;-48
2022/07/20 03:32:34;;;;;;;9.63;4.97;;;24.30;99.30;;;;;;5035156;28;20171;-45
2022/07/20 03:35:00;;;;;;;10.25;4.60;;;24.30;98.70;;;;;;5034945;28;20634;-44
2022/07/20 03:37:26;;;;;;;8.68;4.22;;;24.30;99.90;;;;;;5034858;28;20684;-54
2022/07/20 03:39:52;;;;;;;10.57;4.93;;;24.20;99.90;;;;;;5034913;28;20167;-51
2022/07/20 03:42:18;;;;;;;17.80;5.32;;;24.30;99.90;;;;;;5034804;28;20507;-54
2022/07/20 03:44:43;;;;;;;5.65;3.90;;;24.40;99.90;;;;;;5033295;28;20769;-51
2022/07/20 03:47:09;;;;;;;11.10;4.25;;;24.40;98.60;;;;;;5034895;28;20171;-51
2022/07/20 03:49:35;;;;;;;15.25;5.65;;;24.40;99.90;;;;;;5035009;28;20174;-50
2022/07/20 03:52:00;;;;;;;12.18;4.57;;;24.40;99.90;;;;;;5034584;28;20213;-52
2022/07/20 03:54:26;;;;;;;17.50;4.68;;;24.40;99.10;;;;;;5034623;28;20641;-46
2022/07/20 03:56:52;;;;;;;12.82;4.57;;;24.40;99.90;;;;;;5034559;28;20236;-52
2022/07/20 03:59:17;;;;;;;16.90;4.95;;;24.40;99.90;;;;;;5034480;28;20159;-52
2022/07/20 04:01:43;;;;;;;10.32;4.82;;;24.30;99.90;;;;;;5034289;28;20677;-54
2022/07/20 04:04:09;;;;;;;8.63;4.40;;;24.10;99.90;;;;;;5034226;28;20676;-48
2022/07/20 04:06:35;;;;;;;9.60;3.72;;;24.20;99.90;;;;;;5034522;28;20596;-51
2022/07/20 04:09:01;;;;;;;14.38;4.32;;;24.10;99.90;;;;;;5034261;28;20221;-49
2022/07/20 04:11:27;;;;;;;12.35;4.47;;;24.10;99.90;;;;;;5034024;28;20167;-55
2022/07/20 04:13:53;;;;;;;12.82;4.30;;;24.30;99.90;;;;;;5034524;28;20546;-48
2022/07/20 04:16:19;;;;;;;11.13;4.57;;;24.30;99.90;;;;;;5034024;28;20193;-46
2022/07/20 04:18:45;;;;;;;9.38;4.28;;;24.30;99.90;;;;;;5034122;28;20640;-44
2022/07/20 04:21:10;;;;;;;6.90;4.55;;;24.30;98.90;;;;;;5034077;28;20636;-45
2022/07/20 04:23:36;;;;;;;7.47;4.13;;;24.30;97.30;;;;;;5033391;28;20202;-44
2022/07/20 04:26:01;;;;;;;10.10;4.60;;;24.30;97.70;;;;;;5032589;28;20255;-44
2022/07/20 04:28:27;;;;;;;14.55;5.35;;;24.40;98.50;;;;;;5033888;28;20171;-44
2022/07/20 04:30:52;;;;;;;9.57;5.13;;;24.40;99.60;;;;;;5033902;28;20526;-52
2022/07/20 04:33:18;;;;;;;13.35;5.97;;;24.30;99.90;;;;;;5033336;28;20222;-48
2022/07/20 04:35:45;;;;;;;10.32;6.00;;;24.40;99.90;;;;;;5034024;28;20675;-44
2022/07/20 04:38:14;;;;;;;7.80;6.05;;;24.30;99.90;;;;;;5033441;28;20167;-45
2022/07/20 04:40:42;;;;;;;15.85;6.80;;;24.50;99.90;;;;;;5033777;28;20258;-45
2022/07/20 04:43:07;;;;;;;10.23;7.13;;;24.50;99.90;;;;;;5033836;28;20214;-45
2022/07/20 04:45:33;;;;;;;14.82;7.78;;;24.70;99.90;;;;;;5033592;28;20628;-44
2022/07/20 04:47:59;;;;;;;17.23;8.68;;;24.80;99.90;;;;;;5033597;28;20179;-44
2022/07/20 04:50:25;;;;;;;14.32;9.00;;;24.70;99.90;;;;;;5033174;28;20538;-54
2022/07/20 04:52:51;;;;;;;22.02;9.35;;;24.80;99.90;;;;;;5033481;28;20181;-51
2022/07/20 04:55:16;;;;;;;15.93;9.52;;;24.90;99.90;;;;;;5033490;28;20172;-44
2022/07/20 04:57:42;;;;;;;15.68;9.90;;;25.00;99.90;;;;;;5033326;28;20530;-45
2022/07/20 05:00:08;;;;;;;16.30;9.75;;;25.10;99.90;;;;;;5033638;28;20262;-45
2022/07/20 05:02:34;;;;;;;18.25;10.73;;;25.20;99.90;;;;;;5033658;28;20225;-48
2022/07/20 05:04:59;;;;;;;23.70;10.35;;;25.30;99.90;;;;;;5033294;28;20179;-47
2022/07/20 05:07:25;;;;;;;16.90;10.15;;;25.40;99.90;;;;;;5033071;28;20219;-48
2022/07/20 05:09:51;;;;;;;13.40;10.20;;;25.50;99.90;;;;;;5033124;28;20201;-47
2022/07/20 05:12:16;;;;;;;19.20;10.60;;;25.70;99.90;;;;;;5033133;28;20171;-51
2022/07/20 05:14:42;;;;;;;18.08;10.65;;;25.60;99.90;;;;;;5032717;28;20175;-49
2022/07/20 05:17:07;;;;;;;14.23;9.80;;;25.60;99.90;;;;;;5033390;28;20527;-46
2022/07/20 05:19:33;;;;;;;22.85;11.38;;;25.60;99.90;;;;;;5032917;28;20558;-47
2022/07/20 05:21:59;;;;;;;20.17;11.70;;;25.60;99.90;;;;;;5032871;28;20209;-50
2022/07/20 05:24:25;;;;;;;22.27;11.18;;;25.60;99.90;;;;;;5032794;28;20293;-50
2022/07/20 05:26:51;;;;;;;23.67;11.93;;;25.80;99.90;;;;;;5033084;28;20178;-48
2022/07/20 05:29:17;;;;;;;24.50;12.40;;;25.80;99.90;;;;;;5032754;28;20539;-45
2022/07/20 05:31:43;;;;;;;15.98;11.32;;;25.90;99.90;;;;;;5032744;28;20167;-46
2022/07/20 05:34:08;;;;;;;18.15;12.27;;;25.90;99.90;;;;;;5032717;28;20221;-44
2022/07/20 05:36:34;;;;;;;16.83;12.02;;;25.90;99.90;;;;;;5032644;28;20182;-44
2022/07/20 05:39:00;;;;;;;17.23;12.60;;;26.00;99.90;;;;;;5032858;28;20171;-48
2022/07/20 05:41:25;;;;;;;18.55;13.02;;;26.00;99.90;;;;;;5032480;28;20167;-55
2022/07/20 05:43:51;;;;;;;26.13;13.63;;;26.00;99.90;;;;;;5032759;28;20214;-55
2022/07/20 05:46:17;;;;;;;23.52;13.50;;;26.00;99.90;;;;;;5032613;28;20221;-54
2022/07/20 05:48:42;;;;;;;16.88;13.48;;;25.90;99.90;;;;;;5032441;28;20195;-54
2022/07/20 05:51:08;;;;;;;19.42;13.20;;;26.10;99.90;;;;;;5032692;28;20171;-50
2022/07/20 05:53:34;;;;;;;28.60;13.43;;;26.00;99.90;;;;;;5033058;28;20175;-52
2022/07/20 05:55:59;;;;;;;19.90;14.48;;;26.10;99.90;;;;;;5032558;28;20194;-54
2022/07/20 05:58:25;;;;;;;22.77;13.85;;;26.10;99.90;;;;;;5032421;28;20627;-50
2022/07/20 06:00:50;;;;;;;21.75;15.43;;;26.10;99.90;;;;;;5032299;28;20164;-45
2022/07/20 06:03:16;;;;;;;20.13;14.23;;;26.10;99.90;;;;;;5032194;28;20203;-44
2022/07/20 06:05:42;;;;;;;21.40;15.25;;;26.10;99.90;;;;;;5032092;28;20175;-44
2022/07/20 06:08:08;;;;;;;19.90;15.63;;;26.00;99.90;;;;;;5032345;28;20186;-48
2022/07/20 06:10:36;;;;;;;20.92;15.13;;;26.10;99.90;;;;;;5032227;28;20186;-51
2022/07/20 06:13:02;;;;;;;24.52;16.58;;;26.00;99.90;;;;;;5032009;28;20225;-51
2022/07/20 06:15:28;;;;;;;24.42;16.52;;;26.10;99.90;;;;;;5031916;28;20167;-50
2022/07/20 06:17:55;;;;;;;21.85;16.83;;;26.20;99.90;;;;;;5031681;28;20159;-53
2022/07/20 06:20:21;;;;;;;25.63;16.40;;;26.20;99.90;;;;;;5031641;28;20190;-53
2022/07/20 06:22:47;;;;;;;24.33;16.38;;;26.40;99.90;;;;;;5031664;28;20182;-55
2022/07/20 06:25:14;;;;;;;25.98;17.02;;;26.50;99.90;;;;;;5031788;28;20183;-54
2022/07/20 06:27:40;;;;;;;22.60;17.27;;;26.80;99.90;;;;;;5030573;28;20171;-53
2022/07/20 06:30:08;;;;;;;28.75;16.23;;;26.70;99.90;;;;;;5032053;28;20617;-55
2022/07/20 06:32:33;;;;;;;27.75;17.42;;;26.60;99.90;;;;;;5031733;28;20198;-52
2022/07/20 06:34:59;;;;;;;30.83;16.17;;;26.40;99.90;;;;;;5031590;28;20194;-52
2022/07/20 06:37:25;;;;;;;18.42;16.02;;;26.40;99.90;;;;;;5031381;28;20169;-51
2022/07/20 06:39:50;;;;;;;23.85;17.30;;;26.50;99.90;;;;;;5031885;28;20167;-45
2022/07/20 06:42:17;;;;;;;22.33;15.93;;;26.60;99.90;;;;;;5031772;28;20162;-49
2022/07/20 06:44:43;;;;;;;21.80;15.90;;;26.80;99.90;;;;;;5031537;28;20672;-47
2022/07/20 06:47:09;;;;;;;27.85;16.23;;;26.90;99.90;;;;;;5032268;28;20162;-49
2022/07/20 06:49:36;;;;;;;23.95;16.67;;;27.10;99.90;;;;;;5036667;28;20173;-47
2022/07/20 06:52:01;;;;;;;22.63;15.00;;;27.10;99.90;;;;;;5036003;28;20170;-48
2022/07/20 06:54:27;;;;;;;33.45;16.08;;;27.10;99.90;;;;;;5036210;28;20167;-46
2022/07/20 06:56:53;;;;;;;25.65;15.45;;;27.10;99.90;;;;;;5036084;28;20171;-50
2022/07/20 06:59:19;;;;;;;24.63;15.63;;;27.40;99.90;;;;;;5035798;28;20224;-46
2022/07/20 07:01:45;;;;;;;23.10;16.35;;;27.60;99.90;;;;;;5036068;28;20246;-46
2022/07/20 07:04:10;;;;;;;26.45;15.27;;;27.40;99.90;;;;;;5035625;28;20206;-48
2022/07/20 07:06:36;;;;;;;29.05;15.95;;;27.60;99.90;;;;;;5036156;28;20225;-45
2022/07/20 07:09:02;;;;;;;20.33;16.08;;;27.70;99.90;;;;;;5035796;28;20706;-47
2022/07/20 07:11:28;;;;;;;24.52;16.85;;;27.70;99.90;;;;;;5035432;28;20221;-45
2022/07/20 07:13:54;;;;;;;21.45;16.50;;;27.80;99.90;;;;;;5035261;28;20187;-49
2022/07/20 07:16:19;;;;;;;22.40;16.88;;;27.70;99.90;;;;;;5035606;28;20171;-48
2022/07/20 07:18:45;;;;;;;28.40;16.52;;;27.80;99.90;;;;;;5035446;28;20182;-47
2022/07/20 07:21:11;;;;;;;23.52;16.45;;;28.00;99.90;;;;;;5035404;28;20190;-46
2022/07/20 07:23:36;;;;;;;32.80;14.73;;;28.20;99.90;;;;;;5035363;28;20248;-48
2022/07/20 07:26:02;;;;;;;19.95;13.90;;;27.80;99.90;;;;;;5040824;28;20200;-48
2022/07/20 07:28:28;;;;;;;25.45;15.02;;;27.90;99.90;;;;;;5054046;28;20197;-48
2022/07/20 07:30:53;;;;;;;17.17;14.50;;;28.20;99.90;;;;;;5053607;28;20233;-65
2022/07/20 07:33:24;;;;;;;23.92;15.77;;;28.20;99.90;;;;;;5053623;28;20228;-44
2022/07/20 07:35:50;;;;;;;27.58;14.63;;;28.10;99.90;;;;;;5054648;28;20173;-44
2022/07/20 07:38:15;;;;;;;19.80;13.95;;;28.10;99.90;;;;;;5055003;28;20596;-44
2022/07/20 07:40:41;;;;;;;26.90;15.57;;;28.10;99.90;;;;;;5053222;28;20678;-45
2022/07/20 07:43:07;;;;;;;20.10;15.75;;;28.00;99.90;;;;;;5053754;28;20197;-48
2022/07/20 07:45:32;;;;;;;23.20;15.38;;;26.70;99.90;;;;;;5055162;28;20212;-44
2022/07/20 07:47:58;;;;;;;24.77;15.00;;;27.90;99.90;;;;;;5054463;28;20521;-46
2022/07/20 07:50:23;;;;;;;31.85;16.35;;;27.80;99.90;;;;;;5054994;28;20234;-44
2022/07/20 07:52:49;;;;;;;21.02;15.05;;;27.70;99.90;;;;;;5054551;28;20165;-45
2022/07/20 07:55:14;;;;;;;24.42;16.13;;;27.80;99.90;;;;;;5055540;28;20630;-44
2022/07/20 07:57:41;;;;;;;18.75;15.00;;;27.60;99.90;;;;;;5054543;28;20643;-46
2022/07/20 08:00:08;;;;;;;18.25;14.68;;;27.60;99.90;;;;;;5054718;28;20185;-47
2022/07/20 08:02:34;;;;;;;20.42;15.80;;;27.60;99.90;;;;;;5054731;28;20181;-46
2022/07/20 08:05:00;;;;;;;23.33;16.92;;;27.60;99.90;;;;;;5054927;28;20206;-43
2022/07/20 08:07:25;;;;;;;24.77;16.17;;;27.80;99.90;;;;;;5054004;28;20331;-49
2022/07/20 08:09:51;;;;;;;21.83;15.40;;;27.70;99.90;;;;;;5054268;28;20223;-49
2022/07/20 08:12:16;;;;;;;22.27;16.10;;;27.60;99.90;;;;;;5054131;28;20174;-46
2022/07/20 08:14:42;;;;;;;21.23;14.65;;;27.80;99.90;;;;;;5054321;28;20171;-44
2022/07/20 08:17:07;;;;;;;20.08;14.68;;;27.70;99.90;;;;;;5054273;28;20537;-44
2022/07/20 08:19:33;;;;;;;21.45;14.20;;;27.60;99.90;;;;;;5054863;28;20194;-44
2022/07/20 08:21:59;;;;;;;17.27;14.25;;;28.00;99.90;;;;;;5054259;28;20174;-51
2022/07/20 08:24:24;;;;;;;20.23;15.70;;;28.50;99.90;;;;;;5053590;28;20209;-49
2022/07/20 08:26:50;;;;;;;22.55;15.38;;;28.70;99.90;;;;;;5053597;28;20170;-50
2022/07/20 08:29:16;;;;;;;21.58;15.18;;;28.60;99.90;;;;;;5053759;28;20166;-50
2022/07/20 08:31:41;;;;;;;22.27;14.93;;;28.40;99.90;;;;;;5053997;28;20165;-47
2022/07/20 08:34:07;;;;;;;27.98;17.08;;;28.30;99.90;;;;;;5054074;28;20249;-44
2022/07/20 08:36:33;;;;;;;23.80;16.42;;;28.00;99.90;;;;;;5053994;28;20170;-44
2022/07/20 08:38:59;;;;;;;23.95;15.73;;;27.60;99.90;;;;;;5053728;28;20538;-44
2022/07/20 08:41:25;;;;;;;25.77;15.57;;;27.50;99.90;;;;;;5053733;28;20200;-44
2022/07/20 08:43:51;;;;;;;27.27;15.77;;;27.60;99.90;;;;;;5053870;28;20205;-44
2022/07/20 08:46:18;;;;;;;19.45;15.23;;;27.50;99.90;;;;;;5052036;28;20521;-48
2022/07/20 08:48:43;;;;;;;25.73;16.25;;;27.40;99.90;;;;;;5053782;28;20197;-44
2022/07/20 08:51:09;;;;;;;21.65;16.10;;;27.40;99.90;;;;;;5053242;28;20200;-50
2022/07/20 08:53:35;;;;;;;21.17;16.90;;;27.50;99.90;;;;;;5053681;28;20651;-53
2022/07/20 08:56:01;;;;;;;24.88;16.45;;;27.40;99.90;;;;;;5053546;28;20170;-48
2022/07/20 08:58:27;;;;;;;22.13;16.27;;;27.40;99.90;;;;;;5053544;28;20170;-50
2022/07/20 09:00:52;;;;;;;20.95;16.05;;;27.50;99.90;;;;;;5053244;28;20253;-45
2022/07/20 09:03:18;;;;;;;25.30;19.73;;;27.50;99.90;;;;;;5053037;28;20198;-46
2022/07/20 09:05:44;;;;;;;22.85;15.55;;;27.60;99.90;;;;;;5053678;28;20170;-44
2022/07/20 09:08:13;;;;;;;20.38;14.82;;;27.60;99.90;;;;;;5053000;28;20716;-47
2022/07/20 09:10:41;;;;;;;22.08;15.05;;;27.70;99.90;;;;;;5052347;28;20162;-48
2022/07/20 09:13:13;;;;;;;23.13;15.60;;;27.90;99.90;;;;;;5053332;28;20576;-47
2022/07/20 09:15:44;;;;;;;25.77;15.05;;;28.10;99.90;;;;;;5052790;28;20223;-49
2022/07/20 09:18:32;;;;;;;22.08;14.77;;;28.50;99.90;;;;;;5052558;28;20173;-45
2022/07/20 09:20:57;;;;;;;22.88;14.57;;;28.60;99.90;;;;;;5052217;28;20159;-49
2022/07/20 09:23:26;;;;;;;23.52;15.13;;;28.80;99.90;;;;;;5052358;28;20204;-47
2022/07/20 09:26:01;;;;;;;24.08;14.52;;;29.00;99.90;;;;;;5052533;28;20647;-51
2022/07/20 09:28:55;;;;;;;26.58;14.48;;;29.20;99.90;;;;;;5052243;28;20170;-49
2022/07/20 09:31:22;;;;;;;25.05;15.68;;;29.00;99.90;;;;;;5049875;28;20209;-48
2022/07/20 09:33:57;;;;;;;21.75;14.88;;;29.20;99.90;;;;;;5052645;28;20212;-44
2022/07/20 09:36:25;;;;;;;22.70;15.00;;;29.60;99.90;;;;;;5051926;28;20169;-49
2022/07/20 09:38:51;;;;;;;20.15;14.13;;;29.80;99.90;;;;;;5052529;28;20264;-52
2022/07/20 09:41:24;;;;;;;21.25;15.68;;;29.90;99.90;;;;;;5052647;28;20268;-49
2022/07/20 09:43:50;;;;;;;22.52;14.93;;;29.90;99.90;;;;;;5052300;28;20205;-49
2022/07/20 09:46:19;;;;;;;20.40;14.55;;;29.10;99.90;;;;;;5052023;28;20639;-50
2022/07/20 09:48:47;;;;;;;24.77;16.30;;;29.10;99.90;;;;;;5052249;28;20181;-49
2022/07/20 09:51:49;;;;;;;20.83;13.77;;;29.40;99.90;;;;;;5052314;28;20172;-50
2022/07/20 09:54:18;;;;;;;17.25;14.00;;;29.40;99.90;;;;;;5010201;28;20638;-50
2022/07/20 09:56:46;;;;;;;20.35;14.88;;;29.30;99.90;;;;;;5052229;28;20167;-50
2022/07/20 09:59:13;;;;;;;21.65;13.45;;;29.40;99.90;;;;;;5052159;28;20213;-49
2022/07/20 10:01:45;;;;;;;19.20;14.20;;;29.50;99.90;;;;;;5051958;28;20162;-49
2022/07/20 10:04:12;;;;;;;21.20;13.85;;;29.90;99.90;;;;;;5052032;28;20315;-49
2022/07/20 10:06:40;;;;;;;21.02;13.95;;;29.90;99.90;;;;;;5051835;28;20214;-51
2022/07/20 10:09:07;;;;;;;24.05;13.98;;;29.50;99.90;;;;;;5051747;28;20166;-49
2022/07/20 10:11:32;;;;;;;22.10;15.05;;;29.70;99.90;;;;;;5052519;28;20216;-48
2022/07/20 10:14:01;;;;;;;24.05;14.02;;;29.90;99.90;;;;;;5050297;28;20170;-44
2022/07/20 10:16:33;;;;;;;18.38;15.10;;;29.90;99.90;;;;;;5051609;28;20170;-52
2022/07/20 10:19:00;;;;;;;21.70;14.45;;;30.20;99.90;;;;;;5052120;28;20568;-48
2022/07/20 10:21:42;;;;;;;18.77;12.73;;;30.60;99.90;;;;;;5051624;28;20265;-48
2022/07/20 10:24:31;;;;;;;19.08;11.80;;;30.50;99.90;;;;;;5051297;28;20292;-44
2022/07/20 10:27:03;;;;;;;17.05;12.02;;;30.40;99.90;;;;;;5051500;28;20189;-43
2022/07/20 10:29:36;;;;;;;17.92;11.38;;;30.40;99.90;;;;;;5051435;28;20201;-44
2022/07/20 10:32:20;;;;;;;13.43;10.75;;;30.80;99.90;;;;;;5051981;28;20162;-52
2022/07/20 10:34:53;;;;;;;14.98;10.85;;;30.70;99.90;;;;;;5051492;28;20169;-42
2022/07/20 10:37:29;;;;;;;19.67;10.40;;;30.80;99.90;;;;;;5051665;28;20173;-43
2022/07/20 10:40:30;;;;;;;20.67;11.15;;;30.70;99.90;;;;;;5051491;28;20623;-44
2022/07/20 10:43:15;;;;;;;16.38;9.23;;;30.80;99.90;;;;;;5006888;28;20647;-48
2022/07/20 10:45:42;;;;;;;13.63;8.73;;;30.30;99.90;;;;;;5051387;28;20166;-48
2022/07/20 10:48:14;;;;;;;14.52;9.23;;;30.70;99.90;;;;;;5051347;28;20170;-52
2022/07/20 10:50:53;;;;;;;19.80;8.90;;;30.60;99.90;;;;;;5051343;28;20170;-52
2022/07/20 10:53:24;;;;;;;19.17;9.40;;;30.80;99.90;;;;;;5051337;28;20212;-47
2022/07/20 10:55:55;;;;;;;11.13;9.77;;;30.90;99.90;;;;;;5051044;28;20158;-44
2022/07/20 10:58:32;;;;;;;21.65;10.35;;;30.90;99.90;;;;;;5051287;28;20174;-51
2022/07/20 11:01:03;;;;;;;15.82;9.80;;;30.80;99.90;;;;;;5051086;28;20154;-48
2022/07/20 11:03:31;;;;;;;12.25;9.75;;;30.70;99.90;;;;;;5050736;28;20247;-48
2022/07/20 11:06:14;;;;;;;14.82;9.82;;;30.60;99.90;;;;;;5051108;28;20210;-43
2022/07/20 11:08:53;;;;;;;11.40;8.45;;;30.50;99.90;;;;;;5050908;28;20206;-52
2022/07/20 11:11:25;;;;;;;12.30;9.55;;;30.80;99.90;;;;;;5050980;28;20257;-49
2022/07/20 11:14:01;;;;;;;15.68;8.63;;;30.90;99.90;;;;;;5051175;28;20628;-45
2022/07/20 11:16:29;;;;;;;18.15;9.90;;;31.00;99.90;;;;;;5051271;28;20552;-47
2022/07/20 11:18:57;;;;;;;15.23;10.15;;;31.20;99.90;;;;;;5051083;28;20205;-46
2022/07/20 11:21:31;;;;;;;13.05;9.73;;;31.50;99.90;;;;;;5050881;28;20166;-43
2022/07/20 11:23:58;;;;;;;14.10;9.18;;;31.90;99.90;;;;;;5050862;28;20193;-43
2022/07/20 11:26:23;;;;;;;12.52;7.07;;;32.10;99.90;;;;;;5050727;28;20170;-49
2022/07/20 11:28:57;;;;;;;12.43;7.10;;;31.80;98.30;;;;;;5050755;28;20173;-51
2022/07/20 11:31:25;;;;;;;15.32;8.38;;;31.80;98.20;;;;;;5050961;28;20170;-43
2022/07/20 11:33:53;;;;;;;13.25;7.57;;;31.50;98.80;;;;;;5051894;28;20166;-43
2022/07/20 11:36:25;;;;;;;12.30;8.00;;;31.80;98.40;;;;;;5054487;28;20173;-43
2022/07/20 11:38:53;;;;;;;12.98;7.75;;;31.90;97.20;;;;;;5055304;28;20648;-45
2022/07/20 11:41:23;;;;;;;10.52;7.50;;;32.10;97.30;;;;;;5053003;28;20181;-49
2022/07/20 11:43:52;;;;;;;12.90;7.18;;;32.00;96.90;;;;;;5054974;28;20201;-50
2022/07/20 11:46:24;;;;;;;14.80;7.50;;;32.00;96.50;;;;;;5054366;28;20196;-44
2022/07/20 11:48:58;;;;;;;9.50;6.82;;;31.70;96.40;;;;;;5053444;28;20509;-46
2022/07/20 11:51:25;;;;;;;12.23;8.10;;;32.40;95.90;;;;;;5054623;28;20333;-52
2022/07/20 11:53:51;;;;;;;13.13;7.88;;;32.10;95.50;;;;;;5054307;28;20170;-52
2022/07/20 11:56:22;;;;;;;9.65;6.15;;;32.20;95.00;;;;;;5054223;28;20643;-51
2022/07/20 11:58:53;;;;;;;10.98;5.30;;;32.50;94.50;;;;;;5054357;28;20228;-46
2022/07/20 12:01:22;;;;;;;10.15;5.50;;;32.60;94.50;;;;;;5054628;28;20252;-47
2022/07/20 12:03:50;;;;;;;8.75;5.22;;;32.80;93.40;;;;;;5053968;28;20185;-52
2022/07/20 12:06:16;;;;;;;7.85;5.60;;;32.50;93.20;;;;;;5053964;28;20220;-50
2022/07/20 12:08:41;;;;;;;13.52;6.03;;;32.30;92.70;;;;;;5054330;28;20170;-52
2022/07/20 12:11:09;;;;;;;10.60;5.70;;;32.20;93.10;;;;;;5054434;28;20193;-52
2022/07/20 12:13:49;;;;;;;11.23;5.88;;;32.10;93.10;;;;;;5054069;28;20619;-49
2022/07/20 12:16:16;;;;;;;10.32;5.45;;;32.10;93.10;;;;;;5054154;28;20174;-52
2022/07/20 12:18:47;;;;;;;11.48;5.05;;;32.10;92.50;;;;;;5054276;28;20559;-51
2022/07/20 12:21:15;;;;;;;7.63;5.45;;;32.30;91.70;;;;;;5054004;28;20166;-52
2022/07/20 12:23:43;;;;;;;13.65;5.47;;;32.30;91.50;;;;;;5053752;28;20632;-52
2022/07/20 12:26:35;;;;;;;13.88;6.07;;;32.30;92.60;;;;;;5053894;28;20159;-52
2022/07/20 12:29:24;;;;;;;8.98;5.75;;;32.40;91.80;;;;;;5050561;28;20174;-48
2022/07/20 12:32:04;;;;;;;11.75;5.45;;;32.40;91.70;;;;;;5053836;28;20174;-46
2022/07/20 12:34:33;;;;;;;8.50;5.25;;;32.50;91.20;;;;;;5053798;28;20165;-44
2022/07/20 12:36:59;;;;;;;9.70;5.57;;;32.40;91.40;;;;;;5053488;28;20504;-49
2022/07/20 12:39:43;;;;;;;9.32;5.80;;;32.60;91.60;;;;;;5053316;28;20246;-49